sensor_id;sensor_type;location;lat;lon;timestamp;temperature;humidity
9225;DHT22;4647;48.072;11.616;2022-08-19T00:01:19;18.00;99.90
9225;DHT22;4647;48.072;11.616;2022-08-19T00:03:46;18.00;99.90
9225;DHT22;4647;48.072;11.616;2022-08-19T00:06:14;18.00;99.90
9225;DHT22;4647;48.072;11.616;2022-08-19T00:08:42;18.10;99.90
9225;DHT22;4647;48.072;11.616;2022-08-19T00:11:09;18.10;99.90
9225;DHT22;4647;48.072;11.616;2022-08-19T00:13:36;18.10;99.90
9225;DHT22;4647;48.072;11.616;2022-08-19T00:16:03;18.10;99.90
9225;DHT22;4647;48.072;11.616;2022-08-19T00:18:32;18.10;99.90
9225;DHT22;4647;48.072;11.616;2022-08-19T00:20:59;18.10;99.90
9225;DHT22;4647;48.072;11.616;2022-08-19T00:23:26;18.10;99.90
9225;DHT22;4647;48.072;11.616;2022-08-19T00:25:55;18.10;99.90
9225;DHT22;4647;48.072;11.616;2022-08-19T00:28:22;18.00;99.90
9225;DHT22;4647;48.072;11.616;2022-08-19T00:30:49;17.90;99.90
9225;DHT22;4647;48.072;11.616;2022-08-19T00:33:17;17.90;99.90
9225;DHT22;4647;48.072;11.616;2022-08-19T00:35:44;17.80;99.90
9225;DHT22;4647;48.072;11.616;2022-08-19T00:38:11;17.80;99.90
9225;DHT22;4647;48.072;11.616;2022-08-19T00:40:38;17.80;99.90
9225;DHT22;4647;48.072;11.616;2022-08-19T00:43:09;17.80;99.90
9225;DHT22;4647;48.072;11.616;2022-08-19T00:45:36;17.80;99.90
9225;DHT22;4647;48.072;11.616;2022-08-19T00:48:03;17.90;99.90
9225;DHT22;4647;48.072;11.616;2022-08-19T00:50:31;17.90;99.90
9225;DHT22;4647;48.072;11.616;2022-08-19T00:52:58;17.90;99.90
9225;DHT22;4647;48.072;11.616;2022-08-19T00:55:26;17.90;99.90
9225;DHT22;4647;48.072;11.616;2022-08-19T00:57:57;17.90;99.90
9225;DHT22;4647;48.072;11.616;2022-08-19T01:00:29;17.90;99.90
9225;DHT22;4647;48.072;11.616;2022-08-19T01:02:56;17.90;99.90
9225;DHT22;4647;48.072;11.616;2022-08-19T01:05:26;17.80;99.90
9225;DHT22;4647;48.072;11.616;2022-08-19T01:07:54;17.70;99.90
9225;DHT22;4647;48.072;11.616;2022-08-19T01:10:26;17.70;99.90
9225;DHT22;4647;48.072;11.616;2022-08-19T01:12:55;17.70;99.90
9225;DHT22;4647;48.072;11.616;2022-08-19T01:15:27;17.60;99.90
9225;DHT22;4647;48.072;11.616;2022-08-19T01:17:57;17.60;99.90
9225;DHT22;4647;48.072;11.616;2022-08-19T01:20:26;17.60;99.90
9225;DHT22;4647;48.072;11.616;2022-08-19T01:22:56;17.60;99.90
9225;DHT22;4647;48.072;11.616;2022-08-19T01:25:27;17.60;99.90
9225;DHT22;4647;48.072;11.616;2022-08-19T01:27:55;17.60;99.90
9225;DHT22;4647;48.072;11.616;2022-08-19T01:30:26;17.70;99.90
9225;DHT22;4647;48.072;11.616;2022-08-19T01:32:54;17.70;99.90
9225;DHT22;4647;48.072;11.616;2022-08-19T01:35:23;17.80;99.90
9225;DHT22;4647;48.072;11.616;2022-08-19T01:37:53;17.80;99.90
9225;DHT22;4647;48.072;11.616;2022-08-19T01:40:24;17.90;99.90
9225;DHT22;4647;48.072;11.616;2022-08-19T01:42:52;17.80;99.90
9225;DHT22;4647;48.072;11.616;2022-08-19T01:45:21;17.80;99.90
9225;DHT22;4647;48.072;11.616;2022-08-19T01:47:48;17.90;99.90
9225;DHT22;4647;48.072;11.616;2022-08-19T01:50:16;18.00;99.90
9225;DHT22;4647;48.072;11.616;2022-08-19T01:52:43;18.00;99.90
9225;DHT22;4647;48.072;11.616;2022-08-19T01:55:13;18.00;99.90
9225;DHT22;4647;48.072;11.616;2022-08-19T01:57:46;18.10;99.90
9225;DHT22;4647;48.072;11.616;2022-08-19T02:00:16;18.00;99.90
9225;DHT22;4647;48.072;11.616;2022-08-19T02:02:44;18.00;99.90
9225;DHT22;4647;48.072;11.616;2022-08-19T02:05:11;18.00;99.90
9225;DHT22;4647;48.072;11.616;2022-08-19T02:07:39;18.10;99.90
9225;DHT22;4647;48.072;11.616;2022-08-19T02:10:10;18.10;99.90
9225;DHT22;4647;48.072;11.616;2022-08-19T02:12:37;18.10;99.90
9225;DHT22;4647;48.072;11.616;2022-08-19T02:15:06;18.10;99.90
9225;DHT22;4647;48.072;11.616;2022-08-19T02:17:33;18.10;99.90
9225;DHT22;4647;48.072;11.616;2022-08-19T02:20:01;18.10;99.90
9225;DHT22;4647;48.072;11.616;2022-08-19T02:22:28;18.10;99.90
9225;DHT22;4647;48.072;11.616;2022-08-19T02:24:55;18.10;99.90
9225;DHT22;4647;48.072;11.616;2022-08-19T02:27:22;18.10;99.90
9225;DHT22;4647;48.072;11.616;2022-08-19T02:29:51;18.10;99.90
9225;DHT22;4647;48.072;11.616;2022-08-19T02:32:19;18.10;99.90
9225;DHT22;4647;48.072;11.616;2022-08-19T02:34:46;18.10;99.90
9225;DHT22;4647;48.072;11.616;2022-08-19T02:37:13;18.00;99.90
9225;DHT22;4647;48.072;11.616;2022-08-19T02:39:54;18.00;99.90
9225;DHT22;4647;48.072;11.616;2022-08-19T02:42:21;18.00;99.90
9225;DHT22;4647;48.072;11.616;2022-08-19T02:44:48;17.90;99.90
9225;DHT22;4647;48.072;11.616;2022-08-19T02:47:15;17.90;99.90
9225;DHT22;4647;48.072;11.616;2022-08-19T02:49:43;17.80;99.90
9225;DHT22;4647;48.072;11.616;2022-08-19T02:52:10;17.70;99.90
9225;DHT22;4647;48.072;11.616;2022-08-19T02:54:37;17.70;99.90
9225;DHT22;4647;48.072;11.616;2022-08-19T02:57:05;17.70;99.90
9225;DHT22;4647;48.072;11.616;2022-08-19T02:59:33;17.70;99.90
9225;DHT22;4647;48.072;11.616;2022-08-19T03:02:00;17.70;99.90
9225;DHT22;4647;48.072;11.616;2022-08-19T03:04:27;17.80;99.90
9225;DHT22;4647;48.072;11.616;2022-08-19T03:06:56;17.80;99.90
9225;DHT22;4647;48.072;11.616;2022-08-19T03:09:23;17.90;99.90
9225;DHT22;4647;48.072;11.616;2022-08-19T03:11:50;18.00;99.90
9225;DHT22;4647;48.072;11.616;2022-08-19T03:14:17;18.10;99.90
9225;DHT22;4647;48.072;11.616;2022-08-19T03:16:46;18.10;99.90
9225;DHT22;4647;48.072;11.616;2022-08-19T03:19:15;18.20;99.90
9225;DHT22;4647;48.072;11.616;2022-08-19T03:21:42;18.00;99.90
9225;DHT22;4647;48.072;11.616;2022-08-19T03:24:12;18.00;99.90
9225;DHT22;4647;48.072;11.616;2022-08-19T03:26:41;18.00;99.90
9225;DHT22;4647;48.072;11.616;2022-08-19T03:29:11;18.10;99.90
9225;DHT22;4647;48.072;11.616;2022-08-19T03:31:38;18.20;99.90
9225;DHT22;4647;48.072;11.616;2022-08-19T03:34:06;18.10;99.90
9225;DHT22;4647;48.072;11.616;2022-08-19T03:36:33;18.20;99.90
9225;DHT22;4647;48.072;11.616;2022-08-19T03:39:00;18.30;99.90
9225;DHT22;4647;48.072;11.616;2022-08-19T03:41:36;18.20;99.90
9225;DHT22;4647;48.072;11.616;2022-08-19T03:44:03;18.20;99.90
9225;DHT22;4647;48.072;11.616;2022-08-19T03:46:32;18.10;99.90
9225;DHT22;4647;48.072;11.616;2022-08-19T03:49:01;18.20;99.90
9225;DHT22;4647;48.072;11.616;2022-08-19T03:51:31;18.30;99.90
9225;DHT22;4647;48.072;11.616;2022-08-19T03:53:59;18.40;99.90
9225;DHT22;4647;48.072;11.616;2022-08-19T03:56:29;18.50;99.90
9225;DHT22;4647;48.072;11.616;2022-08-19T03:58:58;18.40;99.90
9225;DHT22;4647;48.072;11.616;2022-08-19T04:01:28;18.50;99.90
9225;DHT22;4647;48.072;11.616;2022-08-19T04:03:56;18.50;99.90
9225;DHT22;4647;48.072;11.616;2022-08-19T04:06:26;18.40;99.90
9225;DHT22;4647;48.072;11.616;2022-08-19T04:08:54;18.40;99.90
9225;DHT22;4647;48.072;11.616;2022-08-19T04:11:23;18.40;99.90
9225;DHT22;4647;48.072;11.616;2022-08-19T04:13:55;18.60;99.90
9225;DHT22;4647;48.072;11.616;2022-08-19T04:16:24;18.90;99.90
9225;DHT22;4647;48.072;11.616;2022-08-19T04:18:54;19.00;99.90
9225;DHT22;4647;48.072;11.616;2022-08-19T04:21:24;19.00;99.90
9225;DHT22;4647;48.072;11.616;2022-08-19T04:23:51;18.90;99.90
9225;DHT22;4647;48.072;11.616;2022-08-19T04:26:20;18.90;99.90
9225;DHT22;4647;48.072;11.616;2022-08-19T04:28:47;18.80;99.90
9225;DHT22;4647;48.072;11.616;2022-08-19T04:31:18;18.90;99.90
9225;DHT22;4647;48.072;11.616;2022-08-19T04:33:45;19.00;99.90
9225;DHT22;4647;48.072;11.616;2022-08-19T04:36:16;18.90;99.90
9225;DHT22;4647;48.072;11.616;2022-08-19T04:38:46;18.90;99.90
9225;DHT22;4647;48.072;11.616;2022-08-19T04:41:13;18.90;99.90
9225;DHT22;4647;48.072;11.616;2022-08-19T04:43:57;18.80;99.90
9225;DHT22;4647;48.072;11.616;2022-08-19T04:46:25;18.70;99.90
9225;DHT22;4647;48.072;11.616;2022-08-19T04:48:54;18.60;99.90
9225;DHT22;4647;48.072;11.616;2022-08-19T04:51:22;18.70;99.90
9225;DHT22;4647;48.072;11.616;2022-08-19T04:53:50;18.80;99.90
9225;DHT22;4647;48.072;11.616;2022-08-19T04:56:19;18.70;99.90
9225;DHT22;4647;48.072;11.616;2022-08-19T04:58:48;18.70;99.90
9225;DHT22;4647;48.072;11.616;2022-08-19T05:01:20;18.70;99.90
9225;DHT22;4647;48.072;11.616;2022-08-19T05:03:49;18.60;99.90
9225;DHT22;4647;48.072;11.616;2022-08-19T05:06:19;18.60;99.90
9225;DHT22;4647;48.072;11.616;2022-08-19T05:08:47;18.40;99.90
9225;DHT22;4647;48.072;11.616;2022-08-19T05:11:17;18.50;99.90
9225;DHT22;4647;48.072;11.616;2022-08-19T05:13:46;18.50;99.90
9225;DHT22;4647;48.072;11.616;2022-08-19T05:16:16;18.50;99.90
9225;DHT22;4647;48.072;11.616;2022-08-19T05:18:44;18.60;99.90
9225;DHT22;4647;48.072;11.616;2022-08-19T05:21:30;18.60;99.90
9225;DHT22;4647;48.072;11.616;2022-08-19T05:24:15;18.60;99.90
9225;DHT22;4647;48.072;11.616;2022-08-19T05:26:45;18.50;99.90
9225;DHT22;4647;48.072;11.616;2022-08-19T05:29:14;18.50;99.90
9225;DHT22;4647;48.072;11.616;2022-08-19T05:31:41;18.50;99.90
9225;DHT22;4647;48.072;11.616;2022-08-19T05:34:09;18.50;99.90
9225;DHT22;4647;48.072;11.616;2022-08-19T05:36:39;18.60;99.90
9225;DHT22;4647;48.072;11.616;2022-08-19T05:39:08;18.50;99.90
9225;DHT22;4647;48.072;11.616;2022-08-19T05:41:36;18.50;99.90
9225;DHT22;4647;48.072;11.616;2022-08-19T05:44:07;18.60;99.90
9225;DHT22;4647;48.072;11.616;2022-08-19T05:46:35;18.60;99.90
9225;DHT22;4647;48.072;11.616;2022-08-19T05:49:02;18.60;99.90
9225;DHT22;4647;48.072;11.616;2022-08-19T05:51:31;18.60;99.90
9225;DHT22;4647;48.072;11.616;2022-08-19T05:53:59;18.60;99.90
9225;DHT22;4647;48.072;11.616;2022-08-19T05:56:26;18.70;99.90
9225;DHT22;4647;48.072;11.616;2022-08-19T05:58:53;18.60;99.90
9225;DHT22;4647;48.072;11.616;2022-08-19T06:01:20;18.50;99.90
9225;DHT22;4647;48.072;11.616;2022-08-19T06:03:47;18.50;99.90
9225;DHT22;4647;48.072;11.616;2022-08-19T06:06:15;18.60;99.90
9225;DHT22;4647;48.072;11.616;2022-08-19T06:08:42;18.50;99.90
9225;DHT22;4647;48.072;11.616;2022-08-19T06:11:21;18.50;99.90
9225;DHT22;4647;48.072;11.616;2022-08-19T06:13:50;18.60;99.90
9225;DHT22;4647;48.072;11.616;2022-08-19T06:16:18;18.60;99.90
9225;DHT22;4647;48.072;11.616;2022-08-19T06:18:49;18.70;99.90
9225;DHT22;4647;48.072;11.616;2022-08-19T06:21:19;18.70;99.90
9225;DHT22;4647;48.072;11.616;2022-08-19T06:23:46;18.70;99.90
9225;DHT22;4647;48.072;11.616;2022-08-19T06:26:14;18.70;99.90
9225;DHT22;4647;48.072;11.616;2022-08-19T06:28:42;18.70;99.90
9225;DHT22;4647;48.072;11.616;2022-08-19T06:31:13;18.70;99.90
9225;DHT22;4647;48.072;11.616;2022-08-19T06:33:42;18.70;99.90
9225;DHT22;4647;48.072;11.616;2022-08-19T06:36:17;18.60;99.90
9225;DHT22;4647;48.072;11.616;2022-08-19T06:38:44;18.60;99.90
9225;DHT22;4647;48.072;11.616;2022-08-19T06:41:11;18.60;99.90
9225;DHT22;4647;48.072;11.616;2022-08-19T06:43:42;18.60;99.90
9225;DHT22;4647;48.072;11.616;2022-08-19T06:46:11;18.70;99.90
9225;DHT22;4647;48.072;11.616;2022-08-19T06:48:38;18.70;99.90
9225;DHT22;4647;48.072;11.616;2022-08-19T06:51:05;18.80;99.90
9225;DHT22;4647;48.072;11.616;2022-08-19T06:53:33;18.80;99.90
9225;DHT22;4647;48.072;11.616;2022-08-19T06:56:00;18.80;99.90
9225;DHT22;4647;48.072;11.616;2022-08-19T06:58:28;18.80;99.90
9225;DHT22;4647;48.072;11.616;2022-08-19T07:00:59;18.80;99.90
9225;DHT22;4647;48.072;11.616;2022-08-19T07:03:29;18.90;99.90
9225;DHT22;4647;48.072;11.616;2022-08-19T07:05:58;18.90;99.90
9225;DHT22;4647;48.072;11.616;2022-08-19T07:08:25;19.00;99.90
9225;DHT22;4647;48.072;11.616;2022-08-19T07:10:52;18.90;99.90
9225;DHT22;4647;48.072;11.616;2022-08-19T07:13:20;19.00;99.90
9225;DHT22;4647;48.072;11.616;2022-08-19T07:15:48;18.90;99.90
9225;DHT22;4647;48.072;11.616;2022-08-19T07:18:18;18.90;99.90
9225;DHT22;4647;48.072;11.616;2022-08-19T07:20:45;19.10;99.90
9225;DHT22;4647;48.072;11.616;2022-08-19T07:23:13;19.30;99.90
9225;DHT22;4647;48.072;11.616;2022-08-19T07:25:40;19.30;99.90
9225;DHT22;4647;48.072;11.616;2022-08-19T07:28:08;19.40;99.90
9225;DHT22;4647;48.072;11.616;2022-08-19T07:30:36;19.60;99.90
9225;DHT22;4647;48.072;11.616;2022-08-19T07:33:04;19.80;99.90
9225;DHT22;4647;48.072;11.616;2022-08-19T07:35:32;20.00;99.90
9225;DHT22;4647;48.072;11.616;2022-08-19T07:38:00;20.10;99.90
9225;DHT22;4647;48.072;11.616;2022-08-19T07:40:29;19.90;99.90
9225;DHT22;4647;48.072;11.616;2022-08-19T07:42:56;20.10;99.90
9225;DHT22;4647;48.072;11.616;2022-08-19T07:45:23;20.10;99.90
9225;DHT22;4647;48.072;11.616;2022-08-19T07:47:50;20.20;99.90
9225;DHT22;4647;48.072;11.616;2022-08-19T07:50:20;20.30;99.90
9225;DHT22;4647;48.072;11.616;2022-08-19T07:52:49;20.30;99.90
9225;DHT22;4647;48.072;11.616;2022-08-19T07:55:19;20.30;99.90
9225;DHT22;4647;48.072;11.616;2022-08-19T07:57:46;20.30;99.90
9225;DHT22;4647;48.072;11.616;2022-08-19T08:00:14;20.30;99.90
9225;DHT22;4647;48.072;11.616;2022-08-19T08:02:41;20.40;99.90
9225;DHT22;4647;48.072;11.616;2022-08-19T08:05:09;20.40;99.90
9225;DHT22;4647;48.072;11.616;2022-08-19T08:07:55;20.40;99.90
9225;DHT22;4647;48.072;11.616;2022-08-19T08:10:39;20.10;99.90
9225;DHT22;4647;48.072;11.616;2022-08-19T08:13:07;20.00;99.90
9225;DHT22;4647;48.072;11.616;2022-08-19T08:15:34;19.90;99.90
9225;DHT22;4647;48.072;11.616;2022-08-19T08:18:02;19.70;99.90
9225;DHT22;4647;48.072;11.616;2022-08-19T08:20:29;19.60;99.90
9225;DHT22;4647;48.072;11.616;2022-08-19T08:22:57;19.60;99.90
9225;DHT22;4647;48.072;11.616;2022-08-19T08:25:41;19.50;99.90
9225;DHT22;4647;48.072;11.616;2022-08-19T08:28:08;19.60;99.90
9225;DHT22;4647;48.072;11.616;2022-08-19T08:30:35;19.50;99.90
9225;DHT22;4647;48.072;11.616;2022-08-19T08:33:03;19.60;99.90
9225;DHT22;4647;48.072;11.616;2022-08-19T08:35:30;19.50;99.90
9225;DHT22;4647;48.072;11.616;2022-08-19T08:37:58;19.50;99.90
9225;DHT22;4647;48.072;11.616;2022-08-19T08:40:29;19.50;99.90
9225;DHT22;4647;48.072;11.616;2022-08-19T08:43:01;19.40;99.90
9225;DHT22;4647;48.072;11.616;2022-08-19T08:45:30;19.40;99.90
9225;DHT22;4647;48.072;11.616;2022-08-19T08:48:04;19.40;99.90
9225;DHT22;4647;48.072;11.616;2022-08-19T08:50:35;19.40;99.90
9225;DHT22;4647;48.072;11.616;2022-08-19T08:53:06;19.30;99.90
9225;DHT22;4647;48.072;11.616;2022-08-19T08:55:34;19.30;99.90
9225;DHT22;4647;48.072;11.616;2022-08-19T08:58:04;19.40;99.90
9225;DHT22;4647;48.072;11.616;2022-08-19T09:00:34;19.50;99.90
9225;DHT22;4647;48.072;11.616;2022-08-19T09:03:03;19.40;99.90
9225;DHT22;4647;48.072;11.616;2022-08-19T09:05:39;19.40;99.90
9225;DHT22;4647;48.072;11.616;2022-08-19T09:08:15;19.40;99.90
9225;DHT22;4647;48.072;11.616;2022-08-19T09:10:46;19.50;99.90
9225;DHT22;4647;48.072;11.616;2022-08-19T09:13:20;19.50;99.90
9225;DHT22;4647;48.072;11.616;2022-08-19T09:15:54;19.60;99.90
9225;DHT22;4647;48.072;11.616;2022-08-19T09:18:21;19.60;99.90
9225;DHT22;4647;48.072;11.616;2022-08-19T09:20:48;19.60;99.90
9225;DHT22;4647;48.072;11.616;2022-08-19T09:23:16;19.70;99.90
9225;DHT22;4647;48.072;11.616;2022-08-19T09:25:43;19.70;99.90
9225;DHT22;4647;48.072;11.616;2022-08-19T09:28:10;19.70;99.90
9225;DHT22;4647;48.072;11.616;2022-08-19T09:30:40;19.80;99.90
9225;DHT22;4647;48.072;11.616;2022-08-19T09:33:07;19.70;99.90
9225;DHT22;4647;48.072;11.616;2022-08-19T09:35:34;19.80;99.90
9225;DHT22;4647;48.072;11.616;2022-08-19T09:38:02;20.00;99.90
9225;DHT22;4647;48.072;11.616;2022-08-19T09:40:30;20.20;99.90
9225;DHT22;4647;48.072;11.616;2022-08-19T09:42:58;20.30;99.90
9225;DHT22;4647;48.072;11.616;2022-08-19T09:45:28;20.40;99.90
9225;DHT22;4647;48.072;11.616;2022-08-19T09:47:56;20.50;99.90
9225;DHT22;4647;48.072;11.616;2022-08-19T09:50:23;20.80;99.90
9225;DHT22;4647;48.072;11.616;2022-08-19T09:52:51;21.10;99.90
9225;DHT22;4647;48.072;11.616;2022-08-19T09:55:19;21.40;99.90
9225;DHT22;4647;48.072;11.616;2022-08-19T09:57:47;21.80;99.90
9225;DHT22;4647;48.072;11.616;2022-08-19T10:00:14;21.90;99.90
9225;DHT22;4647;48.072;11.616;2022-08-19T10:02:41;22.10;99.90
9225;DHT22;4647;48.072;11.616;2022-08-19T10:05:08;22.40;99.90
9225;DHT22;4647;48.072;11.616;2022-08-19T10:07:53;22.50;99.90
9225;DHT22;4647;48.072;11.616;2022-08-19T10:10:20;22.70;99.90
9225;DHT22;4647;48.072;11.616;2022-08-19T10:12:48;23.00;99.90
9225;DHT22;4647;48.072;11.616;2022-08-19T10:15:15;23.10;99.90
9225;DHT22;4647;48.072;11.616;2022-08-19T10:17:46;23.00;99.90
9225;DHT22;4647;48.072;11.616;2022-08-19T10:20:13;22.90;99.90
9225;DHT22;4647;48.072;11.616;2022-08-19T10:22:40;22.70;99.90
9225;DHT22;4647;48.072;11.616;2022-08-19T10:25:08;22.70;99.90
9225;DHT22;4647;48.072;11.616;2022-08-19T10:27:35;22.70;99.90
9225;DHT22;4647;48.072;11.616;2022-08-19T10:30:05;22.70;99.90
9225;DHT22;4647;48.072;11.616;2022-08-19T10:32:32;22.60;99.90
9225;DHT22;4647;48.072;11.616;2022-08-19T10:34:59;22.50;99.90
9225;DHT22;4647;48.072;11.616;2022-08-19T10:37:26;22.50;99.90
9225;DHT22;4647;48.072;11.616;2022-08-19T10:39:53;22.70;99.90
9225;DHT22;4647;48.072;11.616;2022-08-19T10:42:20;22.80;99.90
9225;DHT22;4647;48.072;11.616;2022-08-19T10:44:47;22.90;99.90
9225;DHT22;4647;48.072;11.616;2022-08-19T10:47:15;23.10;99.90
9225;DHT22;4647;48.072;11.616;2022-08-19T10:49:42;23.40;99.90
9225;DHT22;4647;48.072;11.616;2022-08-19T10:52:27;23.70;99.90
9225;DHT22;4647;48.072;11.616;2022-08-19T10:54:59;23.90;99.90
9225;DHT22;4647;48.072;11.616;2022-08-19T10:57:44;23.80;99.90
9225;DHT22;4647;48.072;11.616;2022-08-19T11:00:12;23.70;99.90
9225;DHT22;4647;48.072;11.616;2022-08-19T11:02:41;23.50;99.90
9225;DHT22;4647;48.072;11.616;2022-08-19T11:05:09;23.20;99.90
9225;DHT22;4647;48.072;11.616;2022-08-19T11:07:37;22.90;99.90
9225;DHT22;4647;48.072;11.616;2022-08-19T11:10:05;23.20;99.90
9225;DHT22;4647;48.072;11.616;2022-08-19T11:12:33;23.30;99.90
9225;DHT22;4647;48.072;11.616;2022-08-19T11:15:00;23.20;99.90
9225;DHT22;4647;48.072;11.616;2022-08-19T11:17:27;23.20;99.90
9225;DHT22;4647;48.072;11.616;2022-08-19T11:19:56;22.80;99.90
9225;DHT22;4647;48.072;11.616;2022-08-19T11:22:23;23.00;99.90
9225;DHT22;4647;48.072;11.616;2022-08-19T11:24:50;23.10;99.90
9225;DHT22;4647;48.072;11.616;2022-08-19T11:27:16;23.00;99.90
9225;DHT22;4647;48.072;11.616;2022-08-19T11:29:43;22.90;99.90
9225;DHT22;4647;48.072;11.616;2022-08-19T11:32:10;22.60;99.90
9225;DHT22;4647;48.072;11.616;2022-08-19T11:34:39;22.40;99.90
9225;DHT22;4647;48.072;11.616;2022-08-19T11:37:08;22.20;99.90
9225;DHT22;4647;48.072;11.616;2022-08-19T11:39:36;22.00;99.90
9225;DHT22;4647;48.072;11.616;2022-08-19T11:42:04;22.30;99.90
9225;DHT22;4647;48.072;11.616;2022-08-19T11:44:52;22.60;99.90
9225;DHT22;4647;48.072;11.616;2022-08-19T11:47:20;23.00;99.90
9225;DHT22;4647;48.072;11.616;2022-08-19T11:49:47;23.20;99.90
9225;DHT22;4647;48.072;11.616;2022-08-19T11:52:15;23.20;99.90
9225;DHT22;4647;48.072;11.616;2022-08-19T11:54:42;23.00;99.90
9225;DHT22;4647;48.072;11.616;2022-08-19T11:57:09;22.90;99.90
9225;DHT22;4647;48.072;11.616;2022-08-19T11:59:36;22.40;99.90
9225;DHT22;4647;48.072;11.616;2022-08-19T12:02:03;21.80;99.90
9225;DHT22;4647;48.072;11.616;2022-08-19T12:04:30;21.50;99.90
9225;DHT22;4647;48.072;11.616;2022-08-19T12:06:57;21.40;99.90
9225;DHT22;4647;48.072;11.616;2022-08-19T12:09:25;21.40;99.90
9225;DHT22;4647;48.072;11.616;2022-08-19T12:11:52;21.60;99.90
9225;DHT22;4647;48.072;11.616;2022-08-19T12:14:19;21.70;99.90
9225;DHT22;4647;48.072;11.616;2022-08-19T12:16:46;21.70;99.90
9225;DHT22;4647;48.072;11.616;2022-08-19T12:19:13;21.80;99.90
9225;DHT22;4647;48.072;11.616;2022-08-19T12:21:41;22.00;99.90
9225;DHT22;4647;48.072;11.616;2022-08-19T12:24:08;21.90;99.90
9225;DHT22;4647;48.072;11.616;2022-08-19T12:26:36;21.50;99.90
9225;DHT22;4647;48.072;11.616;2022-08-19T12:29:04;21.20;99.90
9225;DHT22;4647;48.072;11.616;2022-08-19T12:31:31;20.80;99.90
9225;DHT22;4647;48.072;11.616;2022-08-19T12:33:58;20.70;99.90
9225;DHT22;4647;48.072;11.616;2022-08-19T12:36:28;20.70;99.90
9225;DHT22;4647;48.072;11.616;2022-08-19T12:38:55;20.50;99.90
9225;DHT22;4647;48.072;11.616;2022-08-19T12:41:24;20.20;99.90
9225;DHT22;4647;48.072;11.616;2022-08-19T12:43:52;20.30;99.90
9225;DHT22;4647;48.072;11.616;2022-08-19T12:46:19;20.40;99.90
9225;DHT22;4647;48.072;11.616;2022-08-19T12:48:46;20.50;99.90
9225;DHT22;4647;48.072;11.616;2022-08-19T12:51:15;20.50;99.90
9225;DHT22;4647;48.072;11.616;2022-08-19T12:53:44;20.80;99.90
9225;DHT22;4647;48.072;11.616;2022-08-19T12:56:12;21.00;99.90
9225;DHT22;4647;48.072;11.616;2022-08-19T12:58:40;21.20;99.90
9225;DHT22;4647;48.072;11.616;2022-08-19T13:01:10;21.30;99.90
9225;DHT22;4647;48.072;11.616;2022-08-19T13:03:38;21.30;99.90
9225;DHT22;4647;48.072;11.616;2022-08-19T13:06:05;21.30;99.90
9225;DHT22;4647;48.072;11.616;2022-08-19T13:08:32;21.50;99.90
9225;DHT22;4647;48.072;11.616;2022-08-19T13:11:07;21.60;99.90
9225;DHT22;4647;48.072;11.616;2022-08-19T13:13:36;21.70;99.90
9225;DHT22;4647;48.072;11.616;2022-08-19T13:16:09;21.90;99.90
9225;DHT22;4647;48.072;11.616;2022-08-19T13:18:37;21.80;99.90
9225;DHT22;4647;48.072;11.616;2022-08-19T13:21:05;22.40;99.90
9225;DHT22;4647;48.072;11.616;2022-08-19T13:23:33;22.80;99.90
9225;DHT22;4647;48.072;11.616;2022-08-19T13:26:03;22.40;99.90
9225;DHT22;4647;48.072;11.616;2022-08-19T13:28:30;22.00;99.90
9225;DHT22;4647;48.072;11.616;2022-08-19T13:31:21;21.60;99.90
9225;DHT22;4647;48.072;11.616;2022-08-19T13:34:06;21.50;99.90
9225;DHT22;4647;48.072;11.616;2022-08-19T13:36:34;21.50;99.90
9225;DHT22;4647;48.072;11.616;2022-08-19T13:39:01;21.60;99.90
9225;DHT22;4647;48.072;11.616;2022-08-19T13:41:28;21.50;99.90
9225;DHT22;4647;48.072;11.616;2022-08-19T13:43:56;21.60;99.90
9225;DHT22;4647;48.072;11.616;2022-08-19T13:46:24;21.90;99.90
9225;DHT22;4647;48.072;11.616;2022-08-19T13:48:52;22.20;99.90
9225;DHT22;4647;48.072;11.616;2022-08-19T13:51:19;22.50;99.90
9225;DHT22;4647;48.072;11.616;2022-08-19T13:53:46;22.90;99.90
9225;DHT22;4647;48.072;11.616;2022-08-19T13:56:15;23.00;99.90
9225;DHT22;4647;48.072;11.616;2022-08-19T13:58:42;23.20;99.90
9225;DHT22;4647;48.072;11.616;2022-08-19T14:01:09;23.30;99.90
9225;DHT22;4647;48.072;11.616;2022-08-19T14:03:38;23.30;99.90
9225;DHT22;4647;48.072;11.616;2022-08-19T14:06:05;22.90;99.90
9225;DHT22;4647;48.072;11.616;2022-08-19T14:08:32;22.60;99.90
9225;DHT22;4647;48.072;11.616;2022-08-19T14:10:59;22.90;99.90
9225;DHT22;4647;48.072;11.616;2022-08-19T14:13:26;23.20;99.90
9225;DHT22;4647;48.072;11.616;2022-08-19T14:15:53;23.30;99.90
9225;DHT22;4647;48.072;11.616;2022-08-19T14:18:20;23.20;99.90
9225;DHT22;4647;48.072;11.616;2022-08-19T14:20:49;23.00;99.90
9225;DHT22;4647;48.072;11.616;2022-08-19T14:23:16;22.90;99.90
9225;DHT22;4647;48.072;11.616;2022-08-19T14:25:43;22.50;99.90
9225;DHT22;4647;48.072;11.616;2022-08-19T14:28:11;22.40;99.90
9225;DHT22;4647;48.072;11.616;2022-08-19T14:30:37;22.60;99.90
9225;DHT22;4647;48.072;11.616;2022-08-19T14:33:06;22.70;99.90
9225;DHT22;4647;48.072;11.616;2022-08-19T14:35:34;22.60;99.90
9225;DHT22;4647;48.072;11.616;2022-08-19T14:38:04;22.40;99.90
9225;DHT22;4647;48.072;11.616;2022-08-19T14:40:32;21.90;99.90
9225;DHT22;4647;48.072;11.616;2022-08-19T14:43:02;21.90;99.90
9225;DHT22;4647;48.072;11.616;2022-08-19T14:45:31;22.10;99.90
9225;DHT22;4647;48.072;11.616;2022-08-19T14:47:59;22.00;99.90
9225;DHT22;4647;48.072;11.616;2022-08-19T14:50:26;22.00;99.90
9225;DHT22;4647;48.072;11.616;2022-08-19T14:52:59;21.80;99.90
9225;DHT22;4647;48.072;11.616;2022-08-19T14:55:27;21.70;99.90
9225;DHT22;4647;48.072;11.616;2022-08-19T14:57:54;21.50;99.90
9225;DHT22;4647;48.072;11.616;2022-08-19T15:00:22;21.40;99.90
9225;DHT22;4647;48.072;11.616;2022-08-19T15:02:49;21.50;99.90
9225;DHT22;4647;48.072;11.616;2022-08-19T15:05:17;21.40;99.90
9225;DHT22;4647;48.072;11.616;2022-08-19T15:07:44;21.30;99.90
9225;DHT22;4647;48.072;11.616;2022-08-19T15:10:12;21.20;99.90
9225;DHT22;4647;48.072;11.616;2022-08-19T15:12:41;21.10;99.90
9225;DHT22;4647;48.072;11.616;2022-08-19T15:15:11;21.10;99.90
9225;DHT22;4647;48.072;11.616;2022-08-19T15:17:39;21.10;99.90
9225;DHT22;4647;48.072;11.616;2022-08-19T15:20:08;21.30;99.90
9225;DHT22;4647;48.072;11.616;2022-08-19T15:22:35;21.40;99.90
9225;DHT22;4647;48.072;11.616;2022-08-19T15:25:02;21.40;99.90
9225;DHT22;4647;48.072;11.616;2022-08-19T15:27:29;21.30;99.90
9225;DHT22;4647;48.072;11.616;2022-08-19T15:29:58;21.30;99.90
9225;DHT22;4647;48.072;11.616;2022-08-19T15:32:25;21.20;99.90
9225;DHT22;4647;48.072;11.616;2022-08-19T15:34:53;21.20;99.90
9225;DHT22;4647;48.072;11.616;2022-08-19T15:37:20;21.20;99.90
9225;DHT22;4647;48.072;11.616;2022-08-19T15:39:48;21.10;99.90
9225;DHT22;4647;48.072;11.616;2022-08-19T15:42:15;21.00;99.90
9225;DHT22;4647;48.072;11.616;2022-08-19T15:44:42;20.90;99.90
9225;DHT22;4647;48.072;11.616;2022-08-19T15:47:10;20.70;99.90
9225;DHT22;4647;48.072;11.616;2022-08-19T15:49:37;21.00;99.90
9225;DHT22;4647;48.072;11.616;2022-08-19T15:52:04;21.20;99.90
9225;DHT22;4647;48.072;11.616;2022-08-19T15:54:32;21.30;99.90